sensor_id;sensor_type;location;lat;lon;timestamp;P1;durP1;ratioP1;P2;durP2;ratioP2
60665;SDS011;59128;44.642;21.188;2023-07-29T00:01:30;4.38;;;3.33;;
60665;SDS011;59128;44.642;21.188;2023-07-29T00:03:56;5.72;;;3.50;;
60665;SDS011;59128;44.642;21.188;2023-07-29T00:06:22;4.72;;;3.50;;
60665;SDS011;59128;44.642;21.188;2023-07-29T00:08:48;3.83;;;3.17;;
60665;SDS011;59128;44.642;21.188;2023-07-29T00:11:14;5.00;;;3.33;;
60665;SDS011;59128;44.642;21.188;2023-07-29T00:13:40;4.05;;;3.20;;
60665;SDS011;59128;44.642;21.188;2023-07-29T00:16:06;4.72;;;3.20;;
60665;SDS011;59128;44.642;21.188;2023-07-29T00:18:32;4.45;;;3.13;;
60665;SDS011;59128;44.642;21.188;2023-07-29T00:20:58;5.18;;;3.30;;
60665;SDS011;59128;44.642;21.188;2023-07-29T00:23:24;4.90;;;3.30;;
60665;SDS011;59128;44.642;21.188;2023-07-29T00:25:50;3.05;;;2.75;;
60665;SDS011;59128;44.642;21.188;2023-07-29T00:28:16;2.93;;;2.60;;
60665;SDS011;59128;44.642;21.188;2023-07-29T00:30:42;6.60;;;3.00;;
60665;SDS011;59128;44.642;21.188;2023-07-29T00:33:08;3.15;;;2.53;;
60665;SDS011;59128;44.642;21.188;2023-07-29T00:35:34;3.67;;;2.50;;
60665;SDS011;59128;44.642;21.188;2023-07-29T00:38:00;2.63;;;2.20;;
60665;SDS011;59128;44.642;21.188;2023-07-29T00:40:28;3.72;;;2.55;;
60665;SDS011;59128;44.642;21.188;2023-07-29T00:42:54;3.08;;;2.30;;
60665;SDS011;59128;44.642;21.188;2023-07-29T00:45:20;3.90;;;2.33;;
60665;SDS011;59128;44.642;21.188;2023-07-29T00:47:46;4.53;;;2.67;;
60665;SDS011;59128;44.642;21.188;2023-07-29T00:50:13;2.97;;;2.30;;
60665;SDS011;59128;44.642;21.188;2023-07-29T00:52:40;3.90;;;2.50;;
60665;SDS011;59128;44.642;21.188;2023-07-29T00:55:06;2.40;;;2.20;;
60665;SDS011;59128;44.642;21.188;2023-07-29T00:57:32;2.78;;;2.58;;
60665;SDS011;59128;44.642;21.188;2023-07-29T00:59:59;3.47;;;2.60;;
60665;SDS011;59128;44.642;21.188;2023-07-29T01:02:25;3.63;;;2.60;;
60665;SDS011;59128;44.642;21.188;2023-07-29T01:04:53;2.50;;;2.30;;
60665;SDS011;59128;44.642;21.188;2023-07-29T01:09:55;3.27;;;2.50;;
60665;SDS011;59128;44.642;21.188;2023-07-29T01:15:14;2.97;;;2.60;;
60665;SDS011;59128;44.642;21.188;2023-07-29T01:17:50;3.67;;;2.60;;
60665;SDS011;59128;44.642;21.188;2023-07-29T01:20:18;3.08;;;2.50;;
60665;SDS011;59128;44.642;21.188;2023-07-29T01:22:45;2.58;;;2.20;;
60665;SDS011;59128;44.642;21.188;2023-07-29T01:25:14;4.18;;;2.70;;
60665;SDS011;59128;44.642;21.188;2023-07-29T01:27:42;4.22;;;2.53;;
60665;SDS011;59128;44.642;21.188;2023-07-29T01:30:08;3.85;;;2.45;;
60665;SDS011;59128;44.642;21.188;2023-07-29T01:32:43;3.67;;;2.70;;
60665;SDS011;59128;44.642;21.188;2023-07-29T01:37:37;2.92;;;2.38;;
60665;SDS011;59128;44.642;21.188;2023-07-29T01:40:04;2.67;;;2.30;;
60665;SDS011;59128;44.642;21.188;2023-07-29T01:42:31;4.65;;;2.70;;
60665;SDS011;59128;44.642;21.188;2023-07-29T01:44:57;3.10;;;2.53;;
60665;SDS011;59128;44.642;21.188;2023-07-29T01:47:23;3.60;;;2.40;;
60665;SDS011;59128;44.642;21.188;2023-07-29T01:49:50;4.32;;;2.60;;
60665;SDS011;59128;44.642;21.188;2023-07-29T01:52:16;3.70;;;2.63;;
60665;SDS011;59128;44.642;21.188;2023-07-29T01:54:43;4.20;;;2.60;;
60665;SDS011;59128;44.642;21.188;2023-07-29T01:57:09;4.25;;;2.70;;
60665;SDS011;59128;44.642;21.188;2023-07-29T01:59:35;4.00;;;2.65;;
60665;SDS011;59128;44.642;21.188;2023-07-29T02:02:01;4.00;;;2.83;;
60665;SDS011;59128;44.642;21.188;2023-07-29T02:04:27;3.22;;;2.80;;
60665;SDS011;59128;44.642;21.188;2023-07-29T02:06:53;4.65;;;2.85;;
60665;SDS011;59128;44.642;21.188;2023-07-29T02:09:20;2.70;;;2.50;;
60665;SDS011;59128;44.642;21.188;2023-07-29T02:11:46;3.50;;;2.67;;
60665;SDS011;59128;44.642;21.188;2023-07-29T02:14:12;2.63;;;2.42;;
60665;SDS011;59128;44.642;21.188;2023-07-29T02:16:38;3.72;;;2.63;;
60665;SDS011;59128;44.642;21.188;2023-07-29T02:19:04;2.90;;;2.50;;
60665;SDS011;59128;44.642;21.188;2023-07-29T02:21:30;3.90;;;2.67;;
60665;SDS011;59128;44.642;21.188;2023-07-29T02:23:56;4.68;;;2.60;;
60665;SDS011;59128;44.642;21.188;2023-07-29T02:26:23;4.47;;;2.53;;
60665;SDS011;59128;44.642;21.188;2023-07-29T02:28:49;3.40;;;2.30;;
60665;SDS011;59128;44.642;21.188;2023-07-29T02:31:20;3.20;;;2.55;;
60665;SDS011;59128;44.642;21.188;2023-07-29T02:33:46;6.13;;;2.80;;
60665;SDS011;59128;44.642;21.188;2023-07-29T02:36:13;5.00;;;3.90;;
60665;SDS011;59128;44.642;21.188;2023-07-29T02:38:39;4.38;;;3.90;;
60665;SDS011;59128;44.642;21.188;2023-07-29T02:41:05;6.00;;;4.35;;
60665;SDS011;59128;44.642;21.188;2023-07-29T02:43:33;8.05;;;4.50;;
60665;SDS011;59128;44.642;21.188;2023-07-29T02:45:59;7.00;;;4.32;;
60665;SDS011;59128;44.642;21.188;2023-07-29T02:48:25;5.72;;;3.97;;
60665;SDS011;59128;44.642;21.188;2023-07-29T02:50:53;4.72;;;4.22;;
60665;SDS011;59128;44.642;21.188;2023-07-29T02:53:19;5.57;;;4.40;;
60665;SDS011;59128;44.642;21.188;2023-07-29T02:55:45;5.75;;;4.10;;
60665;SDS011;59128;44.642;21.188;2023-07-29T02:58:11;6.20;;;3.80;;
60665;SDS011;59128;44.642;21.188;2023-07-29T03:00:37;5.60;;;3.70;;
60665;SDS011;59128;44.642;21.188;2023-07-29T03:03:06;4.80;;;3.80;;
60665;SDS011;59128;44.642;21.188;2023-07-29T03:05:33;4.43;;;3.45;;
60665;SDS011;59128;44.642;21.188;2023-07-29T03:07:59;5.25;;;3.33;;
60665;SDS011;59128;44.642;21.188;2023-07-29T03:10:25;4.38;;;3.63;;
60665;SDS011;59128;44.642;21.188;2023-07-29T03:12:53;4.25;;;3.83;;
60665;SDS011;59128;44.642;21.188;2023-07-29T03:15:23;5.88;;;3.70;;
60665;SDS011;59128;44.642;21.188;2023-07-29T03:17:50;5.30;;;3.72;;
60665;SDS011;59128;44.642;21.188;2023-07-29T03:20:16;5.40;;;3.55;;
60665;SDS011;59128;44.642;21.188;2023-07-29T03:22:45;5.25;;;3.30;;
60665;SDS011;59128;44.642;21.188;2023-07-29T03:25:11;5.13;;;3.70;;
60665;SDS011;59128;44.642;21.188;2023-07-29T03:27:37;6.20;;;4.68;;
60665;SDS011;59128;44.642;21.188;2023-07-29T03:30:05;6.28;;;4.30;;
60665;SDS011;59128;44.642;21.188;2023-07-29T03:32:31;6.53;;;5.33;;
60665;SDS011;59128;44.642;21.188;2023-07-29T03:34:57;10.25;;;7.03;;
60665;SDS011;59128;44.642;21.188;2023-07-29T03:37:23;10.57;;;7.57;;
60665;SDS011;59128;44.642;21.188;2023-07-29T03:39:49;10.05;;;8.82;;
60665;SDS011;59128;44.642;21.188;2023-07-29T03:42:17;13.50;;;11.50;;
60665;SDS011;59128;44.642;21.188;2023-07-29T03:44:43;13.75;;;11.70;;
60665;SDS011;59128;44.642;21.188;2023-07-29T03:47:09;13.10;;;9.88;;
60665;SDS011;59128;44.642;21.188;2023-07-29T03:49:35;9.10;;;6.38;;
60665;SDS011;59128;44.642;21.188;2023-07-29T03:52:01;6.80;;;4.43;;
60665;SDS011;59128;44.642;21.188;2023-07-29T03:54:27;5.32;;;4.55;;
60665;SDS011;59128;44.642;21.188;2023-07-29T03:56:53;5.55;;;4.40;;
60665;SDS011;59128;44.642;21.188;2023-07-29T03:59:19;7.22;;;4.05;;
60665;SDS011;59128;44.642;21.188;2023-07-29T04:01:47;4.33;;;3.70;;
60665;SDS011;59128;44.642;21.188;2023-07-29T04:04:13;4.70;;;3.60;;
60665;SDS011;59128;44.642;21.188;2023-07-29T04:06:39;5.72;;;4.00;;
60665;SDS011;59128;44.642;21.188;2023-07-29T04:09:05;5.00;;;3.83;;
60665;SDS011;59128;44.642;21.188;2023-07-29T04:11:33;5.10;;;3.47;;
60665;SDS011;59128;44.642;21.188;2023-07-29T04:13:59;3.63;;;3.25;;
60665;SDS011;59128;44.642;21.188;2023-07-29T04:16:25;4.45;;;3.38;;
60665;SDS011;59128;44.642;21.188;2023-07-29T04:18:51;4.57;;;3.60;;
60665;SDS011;59128;44.642;21.188;2023-07-29T04:21:17;5.90;;;3.27;;
60665;SDS011;59128;44.642;21.188;2023-07-29T04:23:43;5.03;;;3.40;;
60665;SDS011;59128;44.642;21.188;2023-07-29T04:26:09;5.22;;;3.17;;
60665;SDS011;59128;44.642;21.188;2023-07-29T04:28:35;4.65;;;3.30;;
60665;SDS011;59128;44.642;21.188;2023-07-29T04:31:01;4.43;;;3.55;;
60665;SDS011;59128;44.642;21.188;2023-07-29T04:33:29;4.38;;;2.85;;
60665;SDS011;59128;44.642;21.188;2023-07-29T04:35:55;5.57;;;3.22;;
60665;SDS011;59128;44.642;21.188;2023-07-29T04:38:21;4.30;;;3.10;;
60665;SDS011;59128;44.642;21.188;2023-07-29T04:40:48;5.20;;;3.20;;
60665;SDS011;59128;44.642;21.188;2023-07-29T04:43:15;4.57;;;3.20;;
60665;SDS011;59128;44.642;21.188;2023-07-29T04:45:44;4.95;;;3.97;;
60665;SDS011;59128;44.642;21.188;2023-07-29T04:48:10;6.93;;;4.50;;
60665;SDS011;59128;44.642;21.188;2023-07-29T04:50:36;5.63;;;4.10;;
60665;SDS011;59128;44.642;21.188;2023-07-29T04:53:02;6.20;;;4.35;;
60665;SDS011;59128;44.642;21.188;2023-07-29T04:55:28;6.30;;;3.97;;
60665;SDS011;59128;44.642;21.188;2023-07-29T04:57:54;5.80;;;4.18;;
60665;SDS011;59128;44.642;21.188;2023-07-29T05:00:20;4.55;;;3.83;;
60665;SDS011;59128;44.642;21.188;2023-07-29T05:02:46;6.47;;;4.38;;
60665;SDS011;59128;44.642;21.188;2023-07-29T05:05:12;5.40;;;4.37;;
60665;SDS011;59128;44.642;21.188;2023-07-29T05:07:38;5.70;;;5.10;;
60665;SDS011;59128;44.642;21.188;2023-07-29T05:10:05;7.53;;;5.30;;
60665;SDS011;59128;44.642;21.188;2023-07-29T05:12:31;6.38;;;5.35;;
60665;SDS011;59128;44.642;21.188;2023-07-29T05:14:57;8.20;;;4.70;;
60665;SDS011;59128;44.642;21.188;2023-07-29T05:17:23;5.03;;;4.15;;
60665;SDS011;59128;44.642;21.188;2023-07-29T05:19:49;5.65;;;4.25;;
60665;SDS011;59128;44.642;21.188;2023-07-29T05:22:15;5.63;;;4.40;;
60665;SDS011;59128;44.642;21.188;2023-07-29T05:24:41;6.22;;;4.43;;
60665;SDS011;59128;44.642;21.188;2023-07-29T05:27:07;8.02;;;3.97;;
60665;SDS011;59128;44.642;21.188;2023-07-29T05:29:34;7.00;;;3.97;;
60665;SDS011;59128;44.642;21.188;2023-07-29T05:32:00;11.75;;;4.30;;
60665;SDS011;59128;44.642;21.188;2023-07-29T05:34:26;10.93;;;4.10;;
60665;SDS011;59128;44.642;21.188;2023-07-29T05:36:52;8.80;;;4.22;;
60665;SDS011;59128;44.642;21.188;2023-07-29T05:39:18;11.50;;;4.25;;
60665;SDS011;59128;44.642;21.188;2023-07-29T05:41:44;9.80;;;4.10;;
60665;SDS011;59128;44.642;21.188;2023-07-29T05:44:11;10.47;;;4.30;;
60665;SDS011;59128;44.642;21.188;2023-07-29T05:46:37;9.07;;;4.30;;
60665;SDS011;59128;44.642;21.188;2023-07-29T05:49:03;8.70;;;4.13;;
60665;SDS011;59128;44.642;21.188;2023-07-29T05:51:29;6.70;;;4.07;;
60665;SDS011;59128;44.642;21.188;2023-07-29T05:53:55;6.72;;;4.22;;
60665;SDS011;59128;44.642;21.188;2023-07-29T05:56:21;6.18;;;4.35;;
60665;SDS011;59128;44.642;21.188;2023-07-29T05:58:47;7.93;;;5.07;;
60665;SDS011;59128;44.642;21.188;2023-07-29T06:01:14;5.97;;;4.10;;
60665;SDS011;59128;44.642;21.188;2023-07-29T06:03:40;6.35;;;5.07;;
60665;SDS011;59128;44.642;21.188;2023-07-29T06:06:06;6.72;;;4.70;;
60665;SDS011;59128;44.642;21.188;2023-07-29T06:08:32;6.13;;;3.92;;
60665;SDS011;59128;44.642;21.188;2023-07-29T06:10:59;5.37;;;3.90;;
60665;SDS011;59128;44.642;21.188;2023-07-29T06:13:25;7.80;;;4.00;;
60665;SDS011;59128;44.642;21.188;2023-07-29T06:15:51;6.03;;;4.07;;
60665;SDS011;59128;44.642;21.188;2023-07-29T06:18:18;6.22;;;4.85;;
60665;SDS011;59128;44.642;21.188;2023-07-29T06:20:44;6.30;;;4.95;;
60665;SDS011;59128;44.642;21.188;2023-07-29T06:23:10;7.70;;;6.20;;
60665;SDS011;59128;44.642;21.188;2023-07-29T06:25:36;7.35;;;5.80;;
60665;SDS011;59128;44.642;21.188;2023-07-29T06:28:02;6.05;;;5.32;;
60665;SDS011;59128;44.642;21.188;2023-07-29T06:30:28;5.35;;;4.20;;
60665;SDS011;59128;44.642;21.188;2023-07-29T06:32:54;4.28;;;3.70;;
60665;SDS011;59128;44.642;21.188;2023-07-29T06:35:20;4.72;;;3.42;;
60665;SDS011;59128;44.642;21.188;2023-07-29T06:37:46;4.28;;;3.55;;
60665;SDS011;59128;44.642;21.188;2023-07-29T06:40:12;5.25;;;3.85;;
60665;SDS011;59128;44.642;21.188;2023-07-29T06:42:38;7.47;;;5.25;;
60665;SDS011;59128;44.642;21.188;2023-07-29T06:45:04;4.90;;;2.95;;
60665;SDS011;59128;44.642;21.188;2023-07-29T06:47:31;3.40;;;3.10;;
60665;SDS011;59128;44.642;21.188;2023-07-29T06:49:57;4.73;;;3.00;;
60665;SDS011;59128;44.642;21.188;2023-07-29T06:52:23;5.00;;;3.00;;
60665;SDS011;59128;44.642;21.188;2023-07-29T06:54:49;3.00;;;2.70;;
60665;SDS011;59128;44.642;21.188;2023-07-29T06:57:15;4.03;;;2.90;;
60665;SDS011;59128;44.642;21.188;2023-07-29T06:59:42;2.78;;;2.53;;
60665;SDS011;59128;44.642;21.188;2023-07-29T07:02:08;5.68;;;2.90;;
60665;SDS011;59128;44.642;21.188;2023-07-29T07:04:34;5.20;;;3.22;;
60665;SDS011;59128;44.642;21.188;2023-07-29T07:07:00;3.97;;;2.65;;
60665;SDS011;59128;44.642;21.188;2023-07-29T07:09:26;3.13;;;2.83;;
60665;SDS011;59128;44.642;21.188;2023-07-29T07:11:52;5.15;;;2.88;;
60665;SDS011;59128;44.642;21.188;2023-07-29T07:14:18;3.72;;;2.78;;
60665;SDS011;59128;44.642;21.188;2023-07-29T07:16:44;6.32;;;3.00;;
60665;SDS011;59128;44.642;21.188;2023-07-29T07:19:10;4.03;;;3.15;;
60665;SDS011;59128;44.642;21.188;2023-07-29T07:21:36;3.13;;;2.80;;
60665;SDS011;59128;44.642;21.188;2023-07-29T07:24:03;3.50;;;3.20;;
60665;SDS011;59128;44.642;21.188;2023-07-29T07:26:29;2.67;;;2.47;;
60665;SDS011;59128;44.642;21.188;2023-07-29T07:28:56;3.70;;;2.80;;
60665;SDS011;59128;44.642;21.188;2023-07-29T07:31:22;4.93;;;3.10;;
60665;SDS011;59128;44.642;21.188;2023-07-29T07:33:48;3.22;;;2.92;;
60665;SDS011;59128;44.642;21.188;2023-07-29T07:36:14;4.40;;;3.13;;
60665;SDS011;59128;44.642;21.188;2023-07-29T07:38:40;5.85;;;2.95;;
60665;SDS011;59128;44.642;21.188;2023-07-29T07:41:06;4.68;;;2.80;;
60665;SDS011;59128;44.642;21.188;2023-07-29T07:43:32;3.17;;;2.47;;
60665;SDS011;59128;44.642;21.188;2023-07-29T07:45:59;4.60;;;3.13;;
60665;SDS011;59128;44.642;21.188;2023-07-29T07:48:26;6.90;;;3.00;;
60665;SDS011;59128;44.642;21.188;2023-07-29T07:50:52;4.05;;;2.60;;
60665;SDS011;59128;44.642;21.188;2023-07-29T07:53:18;4.68;;;2.70;;
60665;SDS011;59128;44.642;21.188;2023-07-29T07:55:47;3.35;;;2.80;;
60665;SDS011;59128;44.642;21.188;2023-07-29T07:58:13;3.90;;;2.78;;
60665;SDS011;59128;44.642;21.188;2023-07-29T08:00:39;4.47;;;3.10;;
60665;SDS011;59128;44.642;21.188;2023-07-29T08:03:05;5.63;;;2.85;;
60665;SDS011;59128;44.642;21.188;2023-07-29T08:05:31;3.83;;;3.00;;
60665;SDS011;59128;44.642;21.188;2023-07-29T08:07:57;4.95;;;3.30;;
60665;SDS011;59128;44.642;21.188;2023-07-29T08:10:23;5.20;;;3.33;;
60665;SDS011;59128;44.642;21.188;2023-07-29T08:12:49;6.90;;;3.20;;
60665;SDS011;59128;44.642;21.188;2023-07-29T08:15:15;5.70;;;2.53;;
60665;SDS011;59128;44.642;21.188;2023-07-29T08:17:42;8.10;;;3.03;;
60665;SDS011;59128;44.642;21.188;2023-07-29T08:20:08;5.72;;;2.88;;
60665;SDS011;59128;44.642;21.188;2023-07-29T08:22:34;4.35;;;2.83;;
60665;SDS011;59128;44.642;21.188;2023-07-29T08:25:00;5.07;;;3.05;;
60665;SDS011;59128;44.642;21.188;2023-07-29T08:27:26;5.78;;;3.10;;
60665;SDS011;59128;44.642;21.188;2023-07-29T08:29:53;4.38;;;2.67;;
60665;SDS011;59128;44.642;21.188;2023-07-29T08:32:19;5.55;;;2.72;;
60665;SDS011;59128;44.642;21.188;2023-07-29T08:34:45;4.90;;;2.78;;
60665;SDS011;59128;44.642;21.188;2023-07-29T08:37:11;8.13;;;3.30;;
60665;SDS011;59128;44.642;21.188;2023-07-29T08:39:38;4.00;;;3.60;;
60665;SDS011;59128;44.642;21.188;2023-07-29T08:42:04;4.13;;;2.70;;
60665;SDS011;59128;44.642;21.188;2023-07-29T08:44:35;5.35;;;2.78;;
60665;SDS011;59128;44.642;21.188;2023-07-29T08:47:02;5.90;;;3.00;;
60665;SDS011;59128;44.642;21.188;2023-07-29T08:49:28;5.85;;;2.92;;
60665;SDS011;59128;44.642;21.188;2023-07-29T08:51:55;4.15;;;3.35;;
60665;SDS011;59128;44.642;21.188;2023-07-29T08:54:23;4.18;;;3.17;;
60665;SDS011;59128;44.642;21.188;2023-07-29T08:56:49;6.38;;;3.10;;
60665;SDS011;59128;44.642;21.188;2023-07-29T08:59:16;6.28;;;3.13;;
60665;SDS011;59128;44.642;21.188;2023-07-29T09:01:42;6.05;;;3.05;;
60665;SDS011;59128;44.642;21.188;2023-07-29T09:04:08;4.70;;;3.20;;
60665;SDS011;59128;44.642;21.188;2023-07-29T09:06:35;6.03;;;2.95;;
60665;SDS011;59128;44.642;21.188;2023-07-29T09:09:03;3.95;;;2.70;;
60665;SDS011;59128;44.642;21.188;2023-07-29T09:11:30;4.35;;;2.78;;
60665;SDS011;59128;44.642;21.188;2023-07-29T09:13:56;3.15;;;2.72;;
60665;SDS011;59128;44.642;21.188;2023-07-29T09:16:22;5.00;;;3.17;;
60665;SDS011;59128;44.642;21.188;2023-07-29T09:18:49;7.28;;;2.90;;
60665;SDS011;59128;44.642;21.188;2023-07-29T09:21:22;4.45;;;2.63;;
60665;SDS011;59128;44.642;21.188;2023-07-29T09:23:49;4.97;;;2.90;;
60665;SDS011;59128;44.642;21.188;2023-07-29T09:26:21;6.40;;;2.70;;
60665;SDS011;59128;44.642;21.188;2023-07-29T09:28:51;5.32;;;2.72;;
60665;SDS011;59128;44.642;21.188;2023-07-29T09:31:21;8.73;;;3.70;;
60665;SDS011;59128;44.642;21.188;2023-07-29T09:33:47;4.82;;;3.00;;
60665;SDS011;59128;44.642;21.188;2023-07-29T09:36:14;5.75;;;3.67;;
60665;SDS011;59128;44.642;21.188;2023-07-29T09:38:40;4.47;;;2.60;;
60665;SDS011;59128;44.642;21.188;2023-07-29T09:41:06;6.65;;;3.00;;
60665;SDS011;59128;44.642;21.188;2023-07-29T09:43:33;5.57;;;2.90;;
60665;SDS011;59128;44.642;21.188;2023-07-29T09:46:03;5.22;;;2.80;;
60665;SDS011;59128;44.642;21.188;2023-07-29T09:48:36;6.78;;;3.80;;
60665;SDS011;59128;44.642;21.188;2023-07-29T09:51:12;3.38;;;2.90;;
60665;SDS011;59128;44.642;21.188;2023-07-29T09:53:42;7.53;;;3.75;;
60665;SDS011;59128;44.642;21.188;2023-07-29T09:56:08;4.25;;;3.00;;
60665;SDS011;59128;44.642;21.188;2023-07-29T09:58:34;3.88;;;2.90;;
60665;SDS011;59128;44.642;21.188;2023-07-29T10:01:02;3.30;;;3.00;;
60665;SDS011;59128;44.642;21.188;2023-07-29T10:03:29;4.20;;;2.35;;
60665;SDS011;59128;44.642;21.188;2023-07-29T10:05:55;3.85;;;2.40;;
60665;SDS011;59128;44.642;21.188;2023-07-29T10:08:22;4.97;;;2.50;;
60665;SDS011;59128;44.642;21.188;2023-07-29T10:10:49;3.92;;;2.40;;
60665;SDS011;59128;44.642;21.188;2023-07-29T10:13:15;2.92;;;2.45;;
60665;SDS011;59128;44.642;21.188;2023-07-29T10:15:41;3.15;;;2.58;;
60665;SDS011;59128;44.642;21.188;2023-07-29T10:18:07;4.78;;;2.92;;
60665;SDS011;59128;44.642;21.188;2023-07-29T10:20:33;2.80;;;2.60;;
60665;SDS011;59128;44.642;21.188;2023-07-29T10:23:00;5.95;;;3.03;;
60665;SDS011;59128;44.642;21.188;2023-07-29T10:25:37;5.22;;;2.83;;
60665;SDS011;59128;44.642;21.188;2023-07-29T10:28:05;4.97;;;3.15;;
60665;SDS011;59128;44.642;21.188;2023-07-29T10:30:32;3.72;;;2.83;;
60665;SDS011;59128;44.642;21.188;2023-07-29T10:32:59;5.70;;;2.95;;
60665;SDS011;59128;44.642;21.188;2023-07-29T10:35:27;6.20;;;4.15;;
60665;SDS011;59128;44.642;21.188;2023-07-29T10:37:53;4.75;;;2.60;;
60665;SDS011;59128;44.642;21.188;2023-07-29T10:40:20;2.75;;;2.55;;
60665;SDS011;59128;44.642;21.188;2023-07-29T10:43:00;4.85;;;3.75;;
60665;SDS011;59128;44.642;21.188;2023-07-29T10:45:27;3.22;;;2.60;;
60665;SDS011;59128;44.642;21.188;2023-07-29T10:48:04;14.48;;;4.55;;
60665;SDS011;59128;44.642;21.188;2023-07-29T10:50:31;4.53;;;2.60;;
60665;SDS011;59128;44.642;21.188;2023-07-29T10:52:57;2.90;;;2.60;;
60665;SDS011;59128;44.642;21.188;2023-07-29T10:55:33;2.53;;;2.33;;
60665;SDS011;59128;44.642;21.188;2023-07-29T11:00:32;3.97;;;2.40;;
60665;SDS011;59128;44.642;21.188;2023-07-29T11:02:59;4.50;;;3.00;;
60665;SDS011;59128;44.642;21.188;2023-07-29T11:05:26;4.70;;;2.50;;
60665;SDS011;59128;44.642;21.188;2023-07-29T11:07:52;4.00;;;2.63;;
60665;SDS011;59128;44.642;21.188;2023-07-29T11:10:18;2.70;;;2.50;;
60665;SDS011;59128;44.642;21.188;2023-07-29T11:12:48;2.97;;;1.90;;
60665;SDS011;59128;44.642;21.188;2023-07-29T11:15:23;2.67;;;1.98;;
60665;SDS011;59128;44.642;21.188;2023-07-29T11:18:00;4.28;;;2.70;;
60665;SDS011;59128;44.642;21.188;2023-07-29T11:22:55;4.35;;;2.65;;
60665;SDS011;59128;44.642;21.188;2023-07-29T11:25:22;4.82;;;2.67;;
60665;SDS011;59128;44.642;21.188;2023-07-29T11:27:48;4.18;;;2.58;;
60665;SDS011;59128;44.642;21.188;2023-07-29T11:30:15;4.38;;;2.60;;
60665;SDS011;59128;44.642;21.188;2023-07-29T11:32:42;3.78;;;2.20;;
60665;SDS011;59128;44.642;21.188;2023-07-29T11:35:09;3.00;;;2.10;;
60665;SDS011;59128;44.642;21.188;2023-07-29T11:37:36;5.07;;;3.40;;
60665;SDS011;59128;44.642;21.188;2023-07-29T11:40:03;2.45;;;2.00;;
60665;SDS011;59128;44.642;21.188;2023-07-29T11:42:31;5.13;;;2.22;;
60665;SDS011;59128;44.642;21.188;2023-07-29T11:44:57;2.97;;;2.03;;
60665;SDS011;59128;44.642;21.188;2023-07-29T11:47:24;3.33;;;2.15;;
60665;SDS011;59128;44.642;21.188;2023-07-29T11:49:50;5.35;;;2.40;;
60665;SDS011;59128;44.642;21.188;2023-07-29T11:52:17;2.80;;;1.98;;
60665;SDS011;59128;44.642;21.188;2023-07-29T11:54:44;2.88;;;2.10;;
60665;SDS011;59128;44.642;21.188;2023-07-29T11:57:11;4.18;;;2.88;;
60665;SDS011;59128;44.642;21.188;2023-07-29T11:59:37;4.05;;;3.05;;
60665;SDS011;59128;44.642;21.188;2023-07-29T12:02:05;3.53;;;2.75;;
60665;SDS011;59128;44.642;21.188;2023-07-29T12:04:31;2.78;;;2.53;;
60665;SDS011;59128;44.642;21.188;2023-07-29T12:06:58;6.38;;;3.05;;
60665;SDS011;59128;44.642;21.188;2023-07-29T12:09:24;4.50;;;2.60;;
60665;SDS011;59128;44.642;21.188;2023-07-29T12:11:52;3.05;;;2.42;;
60665;SDS011;59128;44.642;21.188;2023-07-29T12:14:18;3.33;;;2.33;;
60665;SDS011;59128;44.642;21.188;2023-07-29T12:16:44;3.28;;;2.35;;
60665;SDS011;59128;44.642;21.188;2023-07-29T12:19:13;2.72;;;2.25;;
60665;SDS011;59128;44.642;21.188;2023-07-29T12:21:42;3.40;;;2.30;;
60665;SDS011;59128;44.642;21.188;2023-07-29T12:24:08;3.10;;;2.20;;
60665;SDS011;59128;44.642;21.188;2023-07-29T12:26:37;2.60;;;2.08;;
60665;SDS011;59128;44.642;21.188;2023-07-29T12:29:13;2.22;;;1.95;;
60665;SDS011;59128;44.642;21.188;2023-07-29T12:31:39;4.50;;;2.50;;
60665;SDS011;59128;44.642;21.188;2023-07-29T12:34:05;4.05;;;2.20;;
60665;SDS011;59128;44.642;21.188;2023-07-29T12:36:48;2.33;;;1.73;;
60665;SDS011;59128;44.642;21.188;2023-07-29T12:39:18;2.63;;;2.00;;
60665;SDS011;59128;44.642;21.188;2023-07-29T12:41:44;2.65;;;2.10;;
60665;SDS011;59128;44.642;21.188;2023-07-29T12:44:10;2.42;;;2.08;;
60665;SDS011;59128;44.642;21.188;2023-07-29T12:46:36;2.20;;;2.00;;
60665;SDS011;59128;44.642;21.188;2023-07-29T12:49:02;2.47;;;2.28;;
60665;SDS011;59128;44.642;21.188;2023-07-29T12:51:28;5.05;;;2.25;;
60665;SDS011;59128;44.642;21.188;2023-07-29T12:53:54;5.05;;;3.08;;
60665;SDS011;59128;44.642;21.188;2023-07-29T12:56:20;2.40;;;1.85;;
60665;SDS011;59128;44.642;21.188;2023-07-29T12:58:46;2.40;;;2.20;;
60665;SDS011;59128;44.642;21.188;2023-07-29T13:01:13;5.63;;;3.75;;
60665;SDS011;59128;44.642;21.188;2023-07-29T13:03:42;3.50;;;2.17;;
60665;SDS011;59128;44.642;21.188;2023-07-29T13:06:08;3.92;;;2.90;;
60665;SDS011;59128;44.642;21.188;2023-07-29T13:08:34;4.10;;;2.67;;
60665;SDS011;59128;44.642;21.188;2023-07-29T13:11:01;5.45;;;2.53;;
60665;SDS011;59128;44.642;21.188;2023-07-29T13:13:28;3.40;;;2.80;;
60665;SDS011;59128;44.642;21.188;2023-07-29T13:15:54;3.33;;;2.60;;
60665;SDS011;59128;44.642;21.188;2023-07-29T13:18:20;2.20;;;2.00;;
60665;SDS011;59128;44.642;21.188;2023-07-29T13:20:47;3.60;;;3.00;;
60665;SDS011;59128;44.642;21.188;2023-07-29T13:23:13;2.50;;;2.20;;
60665;SDS011;59128;44.642;21.188;2023-07-29T13:25:39;3.42;;;2.00;;
60665;SDS011;59128;44.642;21.188;2023-07-29T13:28:05;2.08;;;1.90;;
60665;SDS011;59128;44.642;21.188;2023-07-29T13:30:32;4.53;;;2.72;;
60665;SDS011;59128;44.642;21.188;2023-07-29T13:32:58;2.17;;;2.00;;
60665;SDS011;59128;44.642;21.188;2023-07-29T13:35:24;3.70;;;1.70;;
60665;SDS011;59128;44.642;21.188;2023-07-29T13:37:50;2.20;;;1.90;;
60665;SDS011;59128;44.642;21.188;2023-07-29T13:40:16;3.00;;;2.10;;
60665;SDS011;59128;44.642;21.188;2023-07-29T13:42:42;3.08;;;2.17;;
60665;SDS011;59128;44.642;21.188;2023-07-29T13:45:08;2.38;;;1.80;;
60665;SDS011;59128;44.642;21.188;2023-07-29T13:47:34;2.83;;;2.00;;
60665;SDS011;59128;44.642;21.188;2023-07-29T13:50:01;3.80;;;2.00;;
60665;SDS011;59128;44.642;21.188;2023-07-29T13:52:27;3.78;;;2.33;;
60665;SDS011;59128;44.642;21.188;2023-07-29T13:54:53;3.00;;;1.77;;
60665;SDS011;59128;44.642;21.188;2023-07-29T13:57:19;2.83;;;1.83;;
60665;SDS011;59128;44.642;21.188;2023-07-29T13:59:45;4.25;;;2.00;;
60665;SDS011;59128;44.642;21.188;2023-07-29T14:02:11;3.92;;;2.13;;
60665;SDS011;59128;44.642;21.188;2023-07-29T14:04:37;5.22;;;2.20;;
60665;SDS011;59128;44.642;21.188;2023-07-29T14:07:04;2.10;;;1.77;;
60665;SDS011;59128;44.642;21.188;2023-07-29T14:09:30;2.15;;;1.80;;
60665;SDS011;59128;44.642;21.188;2023-07-29T14:11:56;2.78;;;2.28;;
60665;SDS011;59128;44.642;21.188;2023-07-29T14:14:22;2.42;;;2.20;;
60665;SDS011;59128;44.642;21.188;2023-07-29T14:16:48;5.18;;;2.25;;
60665;SDS011;59128;44.642;21.188;2023-07-29T14:19:14;5.68;;;2.15;;
60665;SDS011;59128;44.642;21.188;2023-07-29T14:21:40;5.60;;;2.30;;
60665;SDS011;59128;44.642;21.188;2023-07-29T14:24:06;3.25;;;1.70;;
60665;SDS011;59128;44.642;21.188;2023-07-29T14:26:32;2.40;;;2.20;;
60665;SDS011;59128;44.642;21.188;2023-07-29T14:28:58;2.67;;;1.95;;
60665;SDS011;59128;44.642;21.188;2023-07-29T14:31:24;2.60;;;1.70;;
60665;SDS011;59128;44.642;21.188;2023-07-29T14:33:50;1.73;;;1.52;;
60665;SDS011;59128;44.642;21.188;2023-07-29T14:36:16;2.25;;;1.85;;
60665;SDS011;59128;44.642;21.188;2023-07-29T14:38:42;1.40;;;1.30;;
60665;SDS011;59128;44.642;21.188;2023-07-29T14:41:08;5.28;;;2.03;;
60665;SDS011;59128;44.642;21.188;2023-07-29T14:43:34;3.13;;;1.95;;